createdAt,value
2018-10-01T00:00:13.636Z,17.65
2018-10-01T00:01:18.905Z,15.23
2018-10-01T00:02:23.408Z,21.02
2018-10-01T00:03:27.555Z,19.65
2018-10-01T00:04:31.570Z,18.37
2018-10-01T00:05:35.915Z,21.50
2018-10-01T00:06:40.021Z,20.02
2018-10-01T00:07:45.390Z,14.18
2018-10-01T00:08:50.367Z,25.37
2018-10-01T00:09:54.474Z,16.40
2018-10-01T00:10:58.643Z,16.20
2018-10-01T00:12:02.753Z,14.87
2018-10-01T00:13:06.894Z,15.50
2018-10-01T00:14:10.953Z,21.82
2018-10-01T00:15:14.964Z,19.05
2018-10-01T00:16:19.542Z,17.98
2018-10-01T00:17:24.331Z,16.70
2018-10-01T00:18:28.444Z,15.13
2018-10-01T00:19:37.966Z,20.20
2018-10-01T00:20:47.451Z,16.07
2018-10-01T00:21:57.938Z,15.70
2018-10-01T00:23:02.959Z,15.03
2018-10-01T00:24:07.038Z,22.05
2018-10-01T00:25:11.136Z,17.00
2018-10-01T00:26:15.302Z,25.40
2018-10-01T00:27:19.377Z,14.83
2018-10-01T00:28:24.828Z,15.65
2018-10-01T00:29:29.646Z,15.55
2018-10-01T00:30:33.708Z,12.20
2018-10-01T00:31:39.086Z,14.18
2018-10-01T00:32:43.439Z,14.45
2018-10-01T00:33:48.856Z,11.53
2018-10-01T00:34:52.971Z,22.40
2018-10-01T00:35:56.992Z,13.30
2018-10-01T00:37:01.501Z,18.20
2018-10-01T00:38:07.138Z,18.37
2018-10-01T00:39:12.221Z,14.98
2018-10-01T00:40:16.595Z,12.23
2018-10-01T00:41:20.697Z,14.45
2018-10-01T00:42:25.684Z,17.07
2018-10-01T00:43:30.756Z,24.75
2018-10-01T00:44:36.758Z,20.60
2018-10-01T00:45:40.820Z,15.43
2018-10-01T00:46:45.522Z,18.77
2018-10-01T00:47:50.542Z,19.05
2018-10-01T00:48:54.644Z,15.68
2018-10-01T00:49:58.756Z,18.42
2018-10-01T00:51:03.757Z,20.12
2018-10-01T00:52:08.036Z,21.12
2018-10-01T00:53:13.122Z,14.15
2018-10-01T00:54:18.248Z,14.28
2018-10-01T00:55:22.329Z,20.20
2018-10-01T00:56:27.023Z,17.98
2018-10-01T00:57:32.340Z,15.60
2018-10-01T00:58:36.454Z,15.48
2018-10-01T00:59:41.453Z,17.98
2018-10-01T01:00:45.633Z,26.25
2018-10-01T01:01:49.904Z,19.02
2018-10-01T01:02:53.956Z,19.80
2018-10-01T01:03:58.064Z,13.10
2018-10-01T01:05:02.160Z,17.12
2018-10-01T01:06:06.555Z,17.30
2018-10-01T01:07:12.189Z,14.95
2018-10-01T01:08:16.219Z,18.17
2018-10-01T01:09:21.129Z,13.68
2018-10-01T01:10:26.212Z,16.05
2018-10-01T01:11:31.160Z,17.75
2018-10-01T01:12:36.031Z,15.23
2018-10-01T01:13:40.241Z,16.80
2018-10-01T01:14:44.822Z,16.30
2018-10-01T01:15:48.897Z,14.75
2018-10-01T01:16:54.030Z,24.52
2018-10-01T01:17:58.761Z,17.50
2018-10-01T01:19:02.869Z,18.65
2018-10-01T01:20:06.967Z,15.53
2018-10-01T01:21:12.768Z,15.85
2018-10-01T01:22:16.842Z,15.85
2018-10-01T01:23:22.223Z,17.27
2018-10-01T01:24:27.185Z,19.82
2018-10-01T01:25:31.240Z,19.00
2018-10-01T01:26:35.985Z,18.00
2018-10-01T01:27:40.088Z,21.30
2018-10-01T01:28:44.141Z,14.23
2018-10-01T01:29:48.261Z,14.38
2018-10-01T01:30:52.410Z,17.32
2018-10-01T01:31:56.569Z,14.00
2018-10-01T01:33:00.670Z,16.32
2018-10-01T01:34:04.903Z,15.55
2018-10-01T01:35:09.038Z,13.43
2018-10-01T01:36:13.339Z,14.18
2018-10-01T01:37:17.417Z,19.98
2018-10-01T01:38:21.485Z,15.23
2018-10-01T01:39:25.722Z,17.80
2018-10-01T01:40:29.810Z,15.58
2018-10-01T01:41:33.864Z,15.35
2018-10-01T01:42:38.707Z,17.32
2018-10-01T01:43:43.386Z,21.37
2018-10-01T01:44:48.488Z,19.20
2018-10-01T01:45:52.517Z,15.83
2018-10-01T01:46:57.411Z,20.88
2018-10-01T01:48:06.338Z,17.75
2018-10-01T01:49:10.918Z,14.55
2018-10-01T01:50:15.005Z,23.87
2018-10-01T01:51:19.112Z,18.70
2018-10-01T01:52:23.179Z,14.65
2018-10-01T01:53:27.236Z,24.82
2018-10-01T01:54:31.288Z,15.63
2018-10-01T01:55:35.431Z,19.67
2018-10-01T01:56:39.466Z,18.27
2018-10-01T01:57:43.600Z,15.35
2018-10-01T01:58:48.549Z,16.70
2018-10-01T01:59:52.636Z,16.82
2018-10-01T02:00:56.777Z,13.40
2018-10-01T02:02:01.173Z,14.98
2018-10-01T02:03:06.518Z,11.40
2018-10-01T02:04:11.119Z,17.10
2018-10-01T02:05:17.132Z,14.03
2018-10-01T02:06:21.295Z,16.67
2018-10-01T02:07:25.424Z,16.27
2018-10-01T02:08:30.153Z,11.35
2018-10-01T02:09:37.236Z,19.77
2018-10-01T02:10:41.312Z,19.52
2018-10-01T02:11:46.554Z,16.87
2018-10-01T02:12:50.627Z,15.08
2018-10-01T02:13:54.720Z,14.07
2018-10-01T02:14:58.785Z,21.95
2018-10-01T02:16:04.060Z,15.53
2018-10-01T02:17:08.165Z,15.13
2018-10-01T02:18:13.154Z,19.45
2018-10-01T02:19:17.205Z,16.67
2018-10-01T02:20:21.327Z,17.32
2018-10-01T02:21:25.551Z,21.62
2018-10-01T02:22:30.268Z,19.35
2018-10-01T02:23:35.250Z,10.95
2018-10-01T02:24:39.373Z,15.45
2018-10-01T02:25:43.538Z,13.93
2018-10-01T02:26:48.842Z,18.50
2018-10-01T02:27:52.940Z,17.20
2018-10-01T02:28:57.025Z,11.57
2018-10-01T02:30:01.981Z,13.43
2018-10-01T02:31:06.123Z,13.05
2018-10-01T02:32:10.188Z,17.10
2018-10-01T02:33:15.230Z,20.25
2018-10-01T02:34:19.399Z,18.23
2018-10-01T02:35:23.481Z,19.05
2018-10-01T02:36:27.535Z,15.68
2018-10-01T02:37:32.334Z,11.20
2018-10-01T02:38:36.417Z,12.20
2018-10-01T02:39:40.469Z,14.53
2018-10-01T02:40:44.541Z,18.60
2018-10-01T02:41:48.628Z,20.43
2018-10-01T02:42:54.417Z,14.38
2018-10-01T02:43:58.711Z,12.03
2018-10-01T02:45:02.738Z,19.67
2018-10-01T02:46:07.462Z,10.35
2018-10-01T02:47:11.527Z,16.70
2018-10-01T02:48:15.675Z,13.98
2018-10-01T02:49:20.142Z,15.88
2018-10-01T02:50:25.690Z,13.93
2018-10-01T02:51:29.833Z,16.40
2018-10-01T02:52:39.282Z,15.65
2018-10-01T02:53:48.571Z,17.05
2018-10-01T02:56:03.481Z,19.42
2018-10-01T02:57:07.579Z,18.15
2018-10-01T02:58:12.505Z,15.38
2018-10-01T02:59:16.586Z,12.15
2018-10-01T03:00:20.680Z,12.90
2018-10-01T03:01:26.291Z,17.62
2018-10-01T03:02:30.601Z,20.00
2018-10-01T03:03:34.712Z,10.90
2018-10-01T03:04:39.117Z,16.25
2018-10-01T03:05:43.244Z,19.17
2018-10-01T03:06:47.433Z,10.65
2018-10-01T03:07:51.516Z,14.85
2018-10-01T03:08:55.545Z,28.98
2018-10-01T03:10:00.419Z,19.42
2018-10-01T03:11:04.515Z,15.63
2018-10-01T03:12:08.707Z,12.58
2018-10-01T03:13:12.751Z,13.72
2018-10-01T03:14:16.783Z,10.80
2018-10-01T03:15:21.184Z,11.90
2018-10-01T03:16:25.142Z,13.43
2018-10-01T03:17:29.228Z,20.57
2018-10-01T03:18:33.645Z,18.65
2018-10-01T03:19:37.722Z,16.45
2018-10-01T03:20:42.434Z,13.32
2018-10-01T03:21:46.547Z,16.60
2018-10-01T03:22:51.142Z,14.30
2018-10-01T03:23:55.270Z,14.63
2018-10-01T03:25:00.383Z,13.28
2018-10-01T03:26:04.454Z,12.37
2018-10-01T03:27:08.496Z,13.30
2018-10-01T03:28:13.578Z,18.05
2018-10-01T03:29:18.566Z,11.50
2018-10-01T03:30:22.732Z,11.45
2018-10-01T03:31:26.862Z,12.03
2018-10-01T03:32:31.488Z,14.30
2018-10-01T03:33:36.031Z,12.98
2018-10-01T03:34:41.699Z,12.40
2018-10-01T03:35:46.642Z,11.60
2018-10-01T03:36:52.034Z,16.15
2018-10-01T03:37:56.168Z,15.95
2018-10-01T03:39:00.333Z,20.30
2018-10-01T03:40:06.020Z,14.95
2018-10-01T03:41:16.748Z,16.17
2018-10-01T03:42:21.366Z,11.60
2018-10-01T03:43:25.478Z,11.05
2018-10-01T03:44:29.501Z,17.07
2018-10-01T03:45:33.583Z,13.60
2018-10-01T03:46:37.780Z,20.45
2018-10-01T03:47:42.948Z,15.63
2018-10-01T03:48:47.312Z,13.20
2018-10-01T03:49:51.419Z,7.78
2018-10-01T03:50:56.220Z,7.67
2018-10-01T03:52:01.511Z,11.93
2018-10-01T03:53:05.579Z,15.30
2018-10-01T03:54:09.748Z,12.23
2018-10-01T03:55:14.889Z,13.93
2018-10-01T03:56:19.069Z,8.20
2018-10-01T03:57:23.190Z,14.85
2018-10-01T03:58:28.732Z,16.27
2018-10-01T03:59:32.778Z,21.97
2018-10-01T04:00:40.282Z,13.00
2018-10-01T04:01:44.452Z,12.55
2018-10-01T04:02:48.669Z,16.95
2018-10-01T04:03:53.033Z,15.00
2018-10-01T04:04:57.023Z,10.72
2018-10-01T04:06:01.175Z,13.50
2018-10-01T04:07:05.303Z,13.00
2018-10-01T04:08:09.598Z,16.05
2018-10-01T04:09:14.613Z,13.28
2018-10-01T04:10:18.626Z,10.85
2018-10-01T04:11:22.855Z,12.15
2018-10-01T04:12:27.041Z,12.85
2018-10-01T04:13:31.852Z,13.98
2018-10-01T04:14:35.922Z,13.20
2018-10-01T04:15:39.985Z,9.98
2018-10-01T04:16:45.625Z,10.85
2018-10-01T04:17:50.362Z,13.60
2018-10-01T04:18:55.202Z,12.70
2018-10-01T04:20:01.451Z,13.08
2018-10-01T04:21:05.540Z,11.53
2018-10-01T04:22:09.867Z,14.33
2018-10-01T04:23:13.951Z,13.22
2018-10-01T04:24:18.169Z,24.47
2018-10-01T04:25:22.407Z,9.83
2018-10-01T04:26:27.610Z,17.20
2018-10-01T04:27:31.908Z,15.08
2018-10-01T04:28:36.023Z,10.63
2018-10-01T04:29:40.908Z,15.08
2018-10-01T04:30:45.038Z,11.80
2018-10-01T04:31:49.145Z,17.95
2018-10-01T04:32:53.249Z,10.50
2018-10-01T04:33:57.648Z,21.90
2018-10-01T04:35:01.790Z,10.95
2018-10-01T04:36:06.899Z,23.62
2018-10-01T04:37:10.990Z,14.93
2018-10-01T04:38:15.220Z,12.65
2018-10-01T04:39:22.945Z,8.73
2018-10-01T04:40:27.061Z,14.15
2018-10-01T04:41:31.166Z,14.33
2018-10-01T04:42:35.252Z,11.65
2018-10-01T04:43:39.515Z,15.80
2018-10-01T04:44:43.604Z,17.25
2018-10-01T04:45:47.825Z,14.40
2018-10-01T04:46:51.986Z,12.73
2018-10-01T04:47:56.018Z,12.50
2018-10-01T04:49:00.148Z,18.37
2018-10-01T04:50:04.738Z,19.00
2018-10-01T04:51:09.033Z,15.63
2018-10-01T04:52:13.852Z,14.78
2018-10-01T04:53:18.323Z,9.70
2018-10-01T04:54:22.532Z,10.55
2018-10-01T04:55:26.886Z,13.80
2018-10-01T04:56:31.012Z,12.70
2018-10-01T04:57:35.258Z,13.18
2018-10-01T04:58:39.982Z,15.15
2018-10-01T04:59:44.680Z,12.98
2018-10-01T05:00:48.739Z,19.45
2018-10-01T05:01:52.990Z,22.27
2018-10-01T05:02:58.434Z,11.80
2018-10-01T05:04:03.945Z,19.55
2018-10-01T05:05:08.061Z,13.85
2018-10-01T05:06:13.188Z,11.03
2018-10-01T05:07:17.280Z,16.82
2018-10-01T05:08:21.702Z,15.05
2018-10-01T05:09:26.611Z,16.65
2018-10-01T05:10:31.048Z,12.05
2018-10-01T05:11:35.065Z,13.45
2018-10-01T05:12:41.121Z,10.85
2018-10-01T05:13:45.216Z,13.05
2018-10-01T05:14:50.392Z,12.18
2018-10-01T05:15:54.525Z,13.22
2018-10-01T05:17:00.401Z,15.80
2018-10-01T05:18:04.461Z,12.28
2018-10-01T05:19:08.650Z,15.58
2018-10-01T05:20:15.006Z,12.80
2018-10-01T05:21:19.261Z,13.68
2018-10-01T05:22:23.419Z,9.53
2018-10-01T05:23:27.468Z,7.75
2018-10-01T05:24:32.575Z,11.30
2018-10-01T05:25:36.700Z,13.58
2018-10-01T05:26:41.554Z,12.05
2018-10-01T05:27:45.616Z,9.28
2018-10-01T05:28:49.706Z,11.55
2018-10-01T05:29:53.882Z,12.85
2018-10-01T05:30:57.964Z,11.43
2018-10-01T05:32:02.060Z,14.18
2018-10-01T05:33:06.220Z,9.28
2018-10-01T05:34:11.234Z,11.33
2018-10-01T05:35:15.510Z,11.55
2018-10-01T05:36:19.682Z,13.20
2018-10-01T05:37:23.831Z,11.05
2018-10-01T05:38:30.060Z,11.20
2018-10-01T05:39:34.207Z,10.93
2018-10-01T05:40:39.614Z,16.87
2018-10-01T05:41:44.283Z,14.35
2018-10-01T05:42:48.400Z,10.78
2018-10-01T05:43:53.035Z,9.30
2018-10-01T05:44:57.214Z,11.85
2018-10-01T05:46:01.361Z,8.38
2018-10-01T05:47:05.912Z,13.18
2018-10-01T05:48:11.606Z,9.98
2018-10-01T05:49:15.779Z,14.30
2018-10-01T05:50:19.824Z,11.73
2018-10-01T05:51:24.877Z,11.93
2018-10-01T05:52:29.159Z,12.80
2018-10-01T05:53:33.296Z,7.75
2018-10-01T05:54:38.166Z,18.55
2018-10-01T05:55:42.321Z,8.28
2018-10-01T05:56:47.409Z,13.85
2018-10-01T05:57:51.737Z,9.38
2018-10-01T05:58:56.436Z,8.35
2018-10-01T06:00:00.525Z,12.00
2018-10-01T06:01:04.921Z,9.98
2018-10-01T06:02:09.213Z,14.20
2018-10-01T06:03:13.645Z,9.53
2018-10-01T06:04:18.685Z,10.58
2018-10-01T06:05:23.002Z,12.15
2018-10-01T06:06:27.308Z,11.88
2018-10-01T06:07:31.436Z,11.30
2018-10-01T06:08:35.789Z,10.18
2018-10-01T06:09:41.361Z,8.88
2018-10-01T06:10:45.492Z,7.47
2018-10-01T06:11:49.707Z,9.08
2018-10-01T06:12:53.809Z,10.55
2018-10-01T06:13:58.698Z,15.75
2018-10-01T06:15:02.870Z,9.25
2018-10-01T06:16:07.915Z,15.88
2018-10-01T06:17:13.087Z,13.40
2018-10-01T06:18:17.141Z,19.12
2018-10-01T06:19:21.474Z,7.87
2018-10-01T06:20:25.607Z,9.08
2018-10-01T06:21:29.617Z,6.08
2018-10-01T06:22:33.783Z,9.75
2018-10-01T06:23:39.370Z,12.15
2018-10-01T06:24:43.460Z,7.90
2018-10-01T06:25:47.633Z,8.43
2018-10-01T06:26:51.626Z,9.80
2018-10-01T06:27:55.814Z,7.45
2018-10-01T06:28:59.959Z,11.22
2018-10-01T06:30:04.240Z,10.80
2018-10-01T06:31:08.908Z,12.55
2018-10-01T06:32:12.971Z,8.05
2018-10-01T06:33:17.056Z,11.83
2018-10-01T06:34:22.161Z,9.58
2018-10-01T06:35:26.308Z,7.58
2018-10-01T06:36:30.437Z,16.25
2018-10-01T06:37:34.531Z,11.38
2018-10-01T06:38:39.466Z,10.63
2018-10-01T06:39:43.601Z,15.93
2018-10-01T06:40:48.439Z,8.95
2018-10-01T06:41:52.488Z,15.65
2018-10-01T06:42:57.059Z,8.88
2018-10-01T06:44:02.050Z,8.63
2018-10-01T06:45:06.353Z,11.48
2018-10-01T06:46:10.451Z,14.35
2018-10-01T06:47:15.650Z,8.35
2018-10-01T06:48:19.961Z,12.47
2018-10-01T06:49:24.095Z,11.63
2018-10-01T06:50:28.241Z,7.65
2018-10-01T06:51:32.555Z,9.30
2018-10-01T06:52:37.883Z,18.00
2018-10-01T06:53:41.956Z,12.75
2018-10-01T06:54:46.291Z,10.05
2018-10-01T06:55:50.343Z,12.65
2018-10-01T06:56:54.396Z,11.53
2018-10-01T06:57:59.971Z,9.08
2018-10-01T06:59:04.141Z,6.35
2018-10-01T07:00:09.379Z,8.80
2018-10-01T07:01:14.642Z,14.28
2018-10-01T07:02:18.790Z,7.00
2018-10-01T07:03:22.870Z,7.78
2018-10-01T07:04:28.017Z,8.18
2018-10-01T07:05:34.003Z,9.05
2018-10-01T07:06:38.164Z,7.37
2018-10-01T07:07:42.453Z,5.70
2018-10-01T07:08:46.517Z,11.08
2018-10-01T07:09:50.597Z,12.40
2018-10-01T07:10:54.789Z,6.95
2018-10-01T07:11:58.875Z,12.30
2018-10-01T07:13:04.006Z,9.53
2018-10-01T07:14:08.119Z,5.92
2018-10-01T07:15:12.217Z,7.08
2018-10-01T07:16:17.167Z,9.58
2018-10-01T07:17:21.333Z,6.30
2018-10-01T07:18:26.844Z,5.58
2018-10-01T07:19:31.521Z,7.42
2018-10-01T07:20:36.348Z,5.12
2018-10-01T07:21:41.382Z,6.30
2018-10-01T07:22:46.309Z,4.97
2018-10-01T07:23:50.388Z,4.25
2018-10-01T07:24:54.525Z,6.78
2018-10-01T07:25:58.633Z,7.83
2018-10-01T07:27:03.753Z,6.87
2018-10-01T07:28:08.894Z,4.37
2018-10-01T07:29:13.590Z,6.70
2018-10-01T07:30:17.665Z,4.17
2018-10-01T07:31:21.741Z,5.55
2018-10-01T07:32:26.842Z,8.75
2018-10-01T07:33:31.809Z,6.85
2018-10-01T07:34:35.894Z,8.03
2018-10-01T07:35:40.736Z,3.40
2018-10-01T07:36:45.191Z,6.15
2018-10-01T07:37:49.249Z,6.87
2018-10-01T07:38:53.392Z,3.98
2018-10-01T07:39:58.744Z,5.58
2018-10-01T07:41:03.135Z,9.00
2018-10-01T07:42:08.842Z,4.33
2018-10-01T07:43:12.929Z,9.03
2018-10-01T07:44:17.250Z,6.17
2018-10-01T07:45:22.362Z,7.60
2018-10-01T07:46:27.183Z,8.15
2018-10-01T07:47:31.877Z,5.67
2018-10-01T07:48:40.866Z,8.50
2018-10-01T07:49:49.721Z,8.98
2018-10-01T07:50:53.797Z,7.08
2018-10-01T07:51:58.822Z,10.03
2018-10-01T07:53:02.926Z,7.37
2018-10-01T07:54:07.703Z,7.00
2018-10-01T07:55:11.762Z,11.28
2018-10-01T07:56:15.985Z,3.77
2018-10-01T07:57:20.132Z,7.33
2018-10-01T07:58:25.014Z,4.30
2018-10-01T07:59:30.003Z,6.70
2018-10-01T08:00:35.819Z,9.20
2018-10-01T08:01:40.003Z,7.60
2018-10-01T08:02:44.393Z,4.60
2018-10-01T08:03:48.676Z,4.55
2018-10-01T08:04:52.862Z,6.50
2018-10-01T08:05:57.067Z,5.40
2018-10-01T08:07:01.201Z,4.15
2018-10-01T08:08:05.291Z,8.08
2018-10-01T08:09:10.095Z,2.33
2018-10-01T08:10:15.036Z,4.12
2018-10-01T08:11:19.827Z,6.53
2018-10-01T08:12:23.974Z,8.43
2018-10-01T08:13:28.150Z,3.00
2018-10-01T08:14:33.023Z,11.57
2018-10-01T08:15:38.529Z,5.50
2018-10-01T08:16:42.597Z,12.50
2018-10-01T08:17:47.188Z,4.90
2018-10-01T08:18:51.899Z,2.75
2018-10-01T08:19:56.016Z,10.72
2018-10-01T08:21:00.161Z,5.60
2018-10-01T08:22:04.230Z,6.25
2018-10-01T08:23:08.286Z,13.78
2018-10-01T08:24:12.445Z,3.15
2018-10-01T08:25:16.622Z,5.42
2018-10-01T08:26:21.448Z,4.00
2018-10-01T08:27:26.643Z,3.12
2018-10-01T08:28:30.944Z,4.90
2018-10-01T08:29:35.654Z,5.20
2018-10-01T08:30:41.290Z,6.60
2018-10-01T08:31:45.335Z,4.85
2018-10-01T08:32:49.380Z,3.30
2018-10-01T08:33:54.538Z,5.15
2018-10-01T08:34:58.642Z,8.13
2018-10-01T08:36:03.317Z,10.68
2018-10-01T08:37:07.654Z,7.60
2018-10-01T08:38:11.747Z,4.95
2018-10-01T08:39:16.567Z,4.97
2018-10-01T08:40:20.586Z,8.75
2018-10-01T08:41:25.591Z,8.28
2018-10-01T08:42:29.840Z,8.60
2018-10-01T08:43:34.146Z,4.08
2018-10-01T08:44:38.428Z,8.20
2018-10-01T08:45:42.507Z,11.88
2018-10-01T08:46:46.706Z,4.50
2018-10-01T08:47:51.059Z,4.03
2018-10-01T08:49:02.187Z,5.45
2018-10-01T08:50:11.689Z,4.75
2018-10-01T08:51:38.424Z,3.40
2018-10-01T08:52:47.959Z,5.55
2018-10-01T08:54:58.449Z,5.90
2018-10-01T08:56:02.732Z,4.05
2018-10-01T08:57:07.082Z,6.92
2018-10-01T08:58:11.248Z,9.48
2018-10-01T08:59:17.357Z,6.40
2018-10-01T09:00:22.341Z,8.83
2018-10-01T09:01:27.600Z,9.03
2018-10-01T09:02:31.797Z,7.42
2018-10-01T09:03:35.832Z,5.45
2018-10-01T09:04:40.263Z,5.78
2018-10-01T09:05:44.350Z,4.40
2018-10-01T09:06:48.545Z,6.67
2018-10-01T09:07:53.085Z,5.83
2018-10-01T09:08:57.185Z,6.08
2018-10-01T09:10:01.225Z,9.45
2018-10-01T09:11:05.374Z,6.97
2018-10-01T09:12:09.725Z,3.98
2018-10-01T09:13:13.858Z,5.67
2018-10-01T09:14:18.083Z,4.35
2018-10-01T09:15:22.109Z,4.25
2018-10-01T09:16:26.402Z,4.08
2018-10-01T09:17:31.355Z,7.37
2018-10-01T09:18:35.468Z,4.67
2018-10-01T09:19:39.582Z,3.55
2018-10-01T09:20:44.811Z,2.62
2018-10-01T09:21:49.885Z,9.95
2018-10-01T09:22:54.575Z,4.33
2018-10-01T09:23:58.943Z,5.45
2018-10-01T09:25:02.980Z,6.28
2018-10-01T09:26:08.675Z,6.08
2018-10-01T09:27:12.761Z,4.58
2018-10-01T09:28:17.020Z,5.15
2018-10-01T09:29:21.129Z,11.57
2018-10-01T09:30:25.484Z,7.12
2018-10-01T09:31:30.242Z,9.68
2018-10-01T09:32:35.101Z,6.47
2018-10-01T09:33:40.633Z,7.17
2018-10-01T09:34:44.750Z,7.15
2018-10-01T09:35:48.883Z,9.08
2018-10-01T09:36:53.222Z,5.60
2018-10-01T09:37:58.386Z,7.65
2018-10-01T09:39:02.509Z,4.08
2018-10-01T09:40:07.640Z,9.33
2018-10-01T09:41:12.242Z,8.03
2018-10-01T09:42:17.798Z,5.65
2018-10-01T09:43:21.924Z,9.18
2018-10-01T09:44:25.964Z,6.08
2018-10-01T09:45:30.608Z,9.03
2018-10-01T09:46:35.313Z,8.10
2018-10-01T09:47:39.364Z,12.10
2018-10-01T09:48:43.433Z,7.85
2018-10-01T09:49:47.511Z,6.75
2018-10-01T09:50:52.587Z,7.97
2018-10-01T09:51:56.703Z,9.80
2018-10-01T09:53:01.788Z,8.63
2018-10-01T09:54:05.827Z,5.42
2018-10-01T09:55:09.990Z,5.95
2018-10-01T09:56:14.152Z,7.67
2018-10-01T09:57:18.437Z,3.60
2018-10-01T09:58:23.092Z,5.65
2018-10-01T09:59:28.303Z,12.15
2018-10-01T10:00:40.427Z,4.80
2018-10-01T10:01:44.443Z,4.78
2018-10-01T10:02:49.079Z,9.80
2018-10-01T10:03:53.835Z,3.67
2018-10-01T10:04:58.836Z,6.67
2018-10-01T10:06:06.032Z,3.98
2018-10-01T10:07:10.894Z,2.90
2018-10-01T10:08:15.173Z,7.87
2018-10-01T10:09:19.243Z,6.70
2018-10-01T10:10:23.330Z,5.03
2018-10-01T10:11:27.354Z,5.50
2018-10-01T10:12:31.470Z,3.47
2018-10-01T10:13:36.321Z,7.20
2018-10-01T10:14:40.531Z,8.15
2018-10-01T10:15:44.738Z,11.97
2018-10-01T10:16:51.052Z,6.83
2018-10-01T10:17:55.178Z,9.18
2018-10-01T10:18:59.986Z,5.45
2018-10-01T10:20:06.089Z,5.22
2018-10-01T10:21:10.078Z,4.20
2018-10-01T10:22:14.298Z,5.70
2018-10-01T10:23:18.344Z,5.00
2018-10-01T10:24:22.373Z,3.05
2018-10-01T10:25:26.493Z,6.35
2018-10-01T10:26:30.869Z,3.45
2018-10-01T10:27:34.965Z,3.22
2018-10-01T10:28:39.034Z,4.72
2018-10-01T10:29:43.266Z,5.62
2018-10-01T10:30:48.559Z,4.80
2018-10-01T10:31:52.802Z,6.90
2018-10-01T10:32:58.016Z,4.78
2018-10-01T10:34:02.077Z,5.15
2018-10-01T10:35:06.281Z,3.40
2018-10-01T10:36:11.014Z,5.20
2018-10-01T10:37:16.545Z,3.52
2018-10-01T10:38:20.630Z,3.22
2018-10-01T10:39:24.671Z,4.45
2018-10-01T10:40:29.542Z,4.35
2018-10-01T10:41:33.595Z,1.92
2018-10-01T10:42:37.750Z,1.40
2018-10-01T10:43:41.811Z,4.53
2018-10-01T10:44:46.834Z,2.40
2018-10-01T10:45:52.167Z,4.12
2018-10-01T10:46:56.233Z,3.52
2018-10-01T10:48:00.346Z,3.50
2018-10-01T10:49:04.971Z,4.33
2018-10-01T10:50:10.524Z,5.55
2018-10-01T10:51:14.684Z,4.80
2018-10-01T10:52:20.092Z,4.15
2018-10-01T10:53:24.196Z,2.20
2018-10-01T10:54:28.291Z,5.03
2018-10-01T10:55:32.355Z,3.40
2018-10-01T10:56:36.532Z,5.42
2018-10-01T10:57:40.627Z,1.60
2018-10-01T10:58:44.709Z,5.03
2018-10-01T10:59:48.881Z,3.58
2018-10-01T11:00:59.749Z,1.32
2018-10-01T11:02:03.976Z,2.95
2018-10-01T11:03:08.164Z,4.67
2018-10-01T11:04:12.292Z,6.17
2018-10-01T11:05:17.276Z,2.50
2018-10-01T11:06:21.372Z,1.62
2018-10-01T11:07:25.450Z,3.40
2018-10-01T11:08:30.501Z,2.27
2018-10-01T11:09:35.200Z,3.67
2018-10-01T11:10:39.264Z,3.80
2018-10-01T11:11:43.321Z,3.27
2018-10-01T11:12:47.905Z,4.25
2018-10-01T11:13:52.025Z,1.85
2018-10-01T11:14:56.353Z,1.80
2018-10-01T11:16:00.312Z,9.50
2018-10-01T11:17:05.095Z,3.55
2018-10-01T11:18:09.447Z,3.05
2018-10-01T11:19:13.919Z,2.70
2018-10-01T11:20:18.491Z,1.47
2018-10-01T11:21:23.668Z,5.12
2018-10-01T11:22:27.706Z,1.82
2018-10-01T11:23:32.770Z,4.22
2018-10-01T11:24:36.744Z,3.17
2018-10-01T11:25:40.891Z,1.77
2018-10-01T11:26:45.131Z,3.02
2018-10-01T11:27:49.268Z,2.80
2018-10-01T11:28:54.340Z,3.45
2018-10-01T11:29:58.382Z,3.52
2018-10-01T11:31:02.505Z,1.00
2018-10-01T11:32:06.850Z,4.75
2018-10-01T11:33:11.123Z,4.60
2018-10-01T11:34:15.283Z,4.80
2018-10-01T11:35:19.415Z,2.58
2018-10-01T11:36:23.537Z,0.95
2018-10-01T11:37:27.748Z,0.70
2018-10-01T11:38:31.880Z,2.10
2018-10-01T11:39:35.974Z,1.37
2018-10-01T11:40:40.037Z,1.05
2018-10-01T11:41:44.317Z,1.07
2018-10-01T11:42:48.379Z,3.70
2018-10-01T11:43:53.420Z,0.78
2018-10-01T11:44:57.712Z,2.75
2018-10-01T11:46:01.804Z,4.70
2018-10-01T11:47:05.929Z,1.40
2018-10-01T11:48:09.938Z,2.65
2018-10-01T11:49:14.123Z,2.15
2018-10-01T11:50:18.257Z,3.52
2018-10-01T11:51:22.353Z,8.00
2018-10-01T11:52:26.376Z,4.40
2018-10-01T11:53:30.478Z,4.90
2018-10-01T11:54:34.601Z,2.85
2018-10-01T11:55:38.690Z,4.65
2018-10-01T11:56:42.982Z,5.80
2018-10-01T11:57:48.196Z,3.00
2018-10-01T11:58:52.379Z,3.52
2018-10-01T11:59:56.461Z,7.28
2018-10-01T12:01:00.653Z,2.65
2018-10-01T12:02:05.690Z,1.98
2018-10-01T12:03:09.868Z,5.90
2018-10-01T12:04:13.903Z,6.85
2018-10-01T12:05:18.121Z,4.70
2018-10-01T12:06:22.234Z,12.23
2018-10-01T12:07:26.525Z,5.55
2018-10-01T12:08:30.622Z,6.42
2018-10-01T12:09:34.741Z,7.28
2018-10-01T12:10:38.937Z,5.78
2018-10-01T12:11:44.170Z,2.72
2018-10-01T12:12:48.321Z,7.30
2018-10-01T12:13:52.430Z,11.53
2018-10-01T12:14:57.377Z,4.67
2018-10-01T12:16:01.679Z,2.90
2018-10-01T12:17:05.614Z,5.37
2018-10-01T12:18:11.003Z,3.15
2018-10-01T12:19:15.672Z,4.30
2018-10-01T12:20:19.867Z,3.98
2018-10-01T12:21:24.684Z,6.58
2018-10-01T12:22:28.687Z,4.45
2018-10-01T12:23:32.825Z,4.45
2018-10-01T12:24:37.102Z,5.80
2018-10-01T12:25:41.934Z,4.10
2018-10-01T12:26:46.648Z,6.60
2018-10-01T12:27:51.448Z,5.37
2018-10-01T12:28:57.062Z,5.30
2018-10-01T12:30:01.121Z,2.85
2018-10-01T12:31:05.358Z,3.72
2018-10-01T12:32:09.426Z,7.08
2018-10-01T12:33:13.718Z,8.13
2018-10-01T12:34:17.645Z,2.55
2018-10-01T12:35:21.749Z,11.28
2018-10-01T12:36:26.440Z,9.53
2018-10-01T12:37:30.592Z,10.72
2018-10-01T12:38:35.583Z,4.15
2018-10-01T12:39:39.682Z,12.05
2018-10-01T12:40:43.719Z,11.80
2018-10-01T12:41:47.808Z,7.42
2018-10-01T12:42:52.023Z,5.10
2018-10-01T12:43:56.169Z,8.73
2018-10-01T12:45:00.313Z,9.25
2018-10-01T12:46:04.406Z,6.53
2018-10-01T12:47:08.653Z,15.95
2018-10-01T12:48:12.739Z,9.00
2018-10-01T12:49:16.840Z,17.60
2018-10-01T12:50:21.142Z,10.18
2018-10-01T12:51:25.325Z,7.05
2018-10-01T12:52:29.301Z,7.15
2018-10-01T12:53:33.577Z,5.10
2018-10-01T12:54:37.731Z,6.45
2018-10-01T12:57:01.965Z,3.05
2018-10-01T12:58:07.122Z,4.72
2018-10-01T12:59:11.224Z,7.58
2018-10-01T13:00:15.297Z,3.85
2018-10-01T13:01:19.427Z,2.95
2018-10-01T13:02:23.488Z,4.60
2018-10-01T13:03:29.171Z,7.08
2018-10-01T13:04:33.313Z,3.95
2018-10-01T13:05:38.206Z,5.05
2018-10-01T13:06:42.925Z,4.53
2018-10-01T13:07:47.038Z,5.33
2018-10-01T13:08:57.749Z,4.50
2018-10-01T13:10:02.300Z,3.33
2018-10-01T13:11:06.604Z,3.22
2018-10-01T13:12:10.818Z,2.58
2018-10-01T13:13:15.272Z,8.90
2018-10-01T13:14:20.514Z,5.30
2018-10-01T13:15:24.706Z,3.52
2018-10-01T13:16:30.477Z,5.60
2018-10-01T13:17:35.698Z,8.20
2018-10-01T13:18:40.482Z,6.25
2018-10-01T13:19:45.597Z,5.92
2018-10-01T13:20:50.133Z,6.37
2018-10-01T13:21:54.807Z,6.42
2018-10-01T13:23:03.340Z,12.88
2018-10-01T13:24:11.067Z,9.25
2018-10-01T13:25:15.743Z,4.75
2018-10-01T13:26:19.707Z,6.95
2018-10-01T13:27:24.109Z,5.35
2018-10-01T13:28:28.715Z,12.15
2018-10-01T13:29:32.870Z,9.25
2018-10-01T13:30:37.078Z,7.22
2018-10-01T13:31:41.470Z,7.85
2018-10-01T13:32:46.383Z,6.42
2018-10-01T13:33:51.013Z,9.53
2018-10-01T13:34:56.021Z,11.55
2018-10-01T13:36:01.226Z,6.83
2018-10-01T13:37:06.170Z,12.82
2018-10-01T13:38:11.064Z,12.85
2018-10-01T13:39:15.159Z,8.98
2018-10-01T13:40:19.669Z,20.02
2018-10-01T13:41:23.760Z,14.35
2018-10-01T13:42:27.888Z,7.30
2018-10-01T13:43:32.098Z,17.90
2018-10-01T13:44:36.245Z,9.25
2018-10-01T13:45:40.873Z,9.80
2018-10-01T13:46:44.976Z,11.45
2018-10-01T13:47:49.684Z,10.15
2018-10-01T13:48:54.267Z,8.70
2018-10-01T13:49:58.904Z,4.47
2018-10-01T13:51:02.956Z,5.33
2018-10-01T13:52:13.946Z,9.50
2018-10-01T13:53:17.958Z,12.13
2018-10-01T13:54:22.086Z,8.13
2018-10-01T13:55:26.896Z,7.08
2018-10-01T13:56:31.535Z,10.03
2018-10-01T13:57:35.625Z,11.75
2018-10-01T13:58:39.854Z,15.90
2018-10-01T13:59:44.496Z,14.05
2018-10-01T14:00:48.934Z,17.27
2018-10-01T14:01:53.951Z,15.20
2018-10-01T14:02:58.087Z,9.48
2018-10-01T14:04:02.112Z,7.87
2018-10-01T14:05:06.820Z,10.50
2018-10-01T14:06:11.264Z,10.68
2018-10-01T14:07:15.466Z,8.43
2018-10-01T14:08:23.184Z,20.17
2018-10-01T14:09:27.283Z,12.68